createdAt,value
2018-09-14T00:01:09.971Z,66.72
2018-09-14T00:03:38.012Z,67.06
2018-09-14T00:06:06.031Z,66.61
2018-09-14T00:08:34.084Z,66.29
2018-09-14T00:11:02.124Z,66.73
2018-09-14T00:13:30.148Z,66.72
2018-09-14T00:15:58.252Z,66.47
2018-09-14T00:18:26.284Z,65.95
2018-09-14T00:20:54.464Z,66.54
2018-09-14T00:23:22.521Z,65.92
2018-09-14T00:25:50.561Z,66.69
2018-09-14T00:28:18.589Z,66.21
2018-09-14T00:30:46.634Z,65.81
2018-09-14T00:33:14.702Z,65.88
2018-09-14T00:35:42.733Z,66.16
2018-09-14T00:38:10.786Z,66.39
2018-09-14T00:43:06.128Z,66.28
2018-09-14T00:45:34.173Z,66.05
2018-09-14T00:48:02.202Z,66.79
2018-09-14T00:50:30.294Z,66.64
2018-09-14T00:52:58.342Z,66.53
2018-09-14T00:55:26.391Z,66.63
2018-09-14T00:57:54.445Z,66.60
2018-09-14T01:00:22.530Z,66.67
2018-09-14T01:02:50.602Z,66.60
2018-09-14T01:05:18.668Z,66.68
2018-09-14T01:07:46.748Z,66.55
2018-09-14T01:10:14.816Z,67.57
2018-09-14T01:12:42.862Z,66.68
2018-09-14T01:15:10.921Z,67.00
2018-09-14T01:17:38.962Z,66.80
2018-09-14T01:20:07.069Z,67.34
2018-09-14T01:22:35.069Z,67.29
2018-09-14T01:25:03.125Z,66.62
2018-09-14T01:27:31.192Z,66.81
2018-09-14T01:29:59.289Z,66.74
2018-09-14T01:32:27.336Z,67.35
2018-09-14T01:34:55.372Z,67.03
2018-09-14T01:37:23.438Z,66.76
2018-09-14T01:39:51.501Z,67.31
2018-09-14T01:42:19.596Z,67.10
2018-09-14T01:44:47.661Z,67.15
2018-09-14T01:47:15.717Z,67.22
2018-09-14T01:49:43.783Z,67.52
2018-09-14T01:52:11.838Z,67.39
2018-09-14T01:54:39.904Z,67.15
2018-09-14T01:57:07.953Z,67.19
2018-09-14T01:59:36.014Z,67.40
2018-09-14T02:02:04.062Z,67.71
2018-09-14T02:04:32.111Z,68.67
2018-09-14T02:07:00.191Z,68.10
2018-09-14T02:09:28.260Z,68.06
2018-09-14T02:11:56.296Z,68.39
2018-09-14T02:14:24.355Z,67.92
2018-09-14T02:16:52.416Z,68.06
2018-09-14T02:19:20.483Z,68.11
2018-09-14T02:21:48.520Z,68.33
2018-09-14T02:24:16.560Z,67.96
2018-09-14T02:26:44.636Z,68.06
2018-09-14T02:29:12.704Z,68.08
2018-09-14T02:31:40.785Z,67.77
2018-09-14T02:34:08.859Z,67.61
2018-09-14T02:36:36.925Z,67.71
2018-09-14T02:39:06.981Z,67.96
2018-09-14T02:41:35.045Z,67.58
2018-09-14T02:44:03.095Z,67.52
2018-09-14T02:46:31.160Z,68.09
2018-09-14T02:48:59.204Z,67.85
2018-09-14T02:51:27.243Z,68.25
2018-09-14T02:53:55.320Z,67.83
2018-09-14T02:56:23.395Z,68.12
2018-09-14T02:58:51.449Z,68.58
2018-09-14T03:01:19.517Z,68.44
2018-09-14T03:03:47.577Z,68.33
2018-09-14T03:06:15.792Z,68.07
2018-09-14T03:08:43.865Z,68.10
2018-09-14T03:11:11.920Z,68.38
2018-09-14T03:13:40.010Z,68.08
2018-09-14T03:16:08.268Z,68.16
2018-09-14T03:18:36.339Z,68.40
2018-09-14T03:21:04.937Z,68.37
2018-09-14T03:23:32.972Z,68.34
2018-09-14T03:26:01.049Z,68.35
2018-09-14T03:28:29.088Z,68.41
2018-09-14T03:30:57.147Z,68.12
2018-09-14T03:33:25.204Z,67.87
2018-09-14T03:35:53.262Z,68.23
2018-09-14T03:38:21.334Z,68.36
2018-09-14T03:40:49.392Z,68.31
2018-09-14T03:43:17.440Z,68.28
2018-09-14T03:45:45.474Z,68.34
2018-09-14T03:48:13.590Z,68.36
2018-09-14T03:50:41.664Z,68.28
2018-09-14T03:53:09.717Z,68.66
2018-09-14T03:55:37.781Z,68.32
2018-09-14T03:58:05.833Z,67.80
2018-09-14T04:00:33.912Z,67.87
2018-09-14T04:03:01.956Z,67.96
2018-09-14T04:05:30.032Z,67.36
2018-09-14T04:07:58.163Z,67.52
2018-09-14T04:10:26.174Z,67.34
2018-09-14T04:12:54.212Z,67.64
2018-09-14T04:15:22.347Z,67.52
2018-09-14T04:17:50.389Z,67.46
2018-09-14T04:20:18.453Z,67.20
2018-09-14T04:22:46.502Z,67.69
2018-09-14T04:25:14.582Z,68.00
2018-09-14T04:27:42.636Z,68.17
2018-09-14T04:30:10.708Z,67.74
2018-09-14T04:32:38.776Z,67.94
2018-09-14T04:35:06.899Z,68.12
2018-09-14T04:37:39.877Z,68.60
2018-09-14T04:40:07.896Z,68.90
2018-09-14T04:42:35.921Z,68.62
2018-09-14T04:45:05.065Z,68.65
2018-09-14T04:47:33.086Z,68.41
2018-09-14T04:50:01.165Z,68.21
2018-09-14T04:52:29.192Z,67.98
2018-09-14T04:54:57.248Z,68.54
2018-09-14T04:57:25.437Z,67.85
2018-09-14T04:59:53.361Z,67.87
2018-09-14T05:02:21.437Z,68.49
2018-09-14T05:04:49.476Z,68.01
2018-09-14T05:07:17.556Z,68.27
2018-09-14T05:09:45.613Z,68.44
2018-09-14T05:12:13.708Z,68.26
2018-09-14T05:14:41.760Z,68.29
2018-09-14T05:17:09.804Z,68.81
2018-09-14T05:19:37.848Z,68.79
2018-09-14T05:22:05.965Z,68.87
2018-09-14T05:24:34.056Z,68.80
2018-09-14T05:27:02.373Z,68.62
2018-09-14T05:29:30.421Z,68.47
2018-09-14T05:31:58.460Z,68.85
2018-09-14T05:34:26.530Z,68.78
2018-09-14T05:36:54.581Z,68.98
2018-09-14T05:39:22.616Z,68.96
2018-09-14T05:41:50.632Z,69.09
2018-09-14T05:44:18.661Z,68.67
2018-09-14T05:46:46.714Z,69.14
2018-09-14T05:49:14.744Z,68.55
2018-09-14T05:51:42.774Z,68.96
2018-09-14T05:54:10.823Z,68.99
2018-09-14T05:56:38.909Z,69.34
2018-09-14T05:59:07.269Z,69.45
2018-09-14T06:01:35.281Z,69.70
2018-09-14T06:04:03.369Z,69.79
2018-09-14T06:06:31.447Z,69.74
2018-09-14T06:08:59.413Z,69.72
2018-09-14T06:11:27.433Z,69.58
2018-09-14T06:13:55.464Z,69.69
2018-09-14T06:16:23.501Z,69.68
2018-09-14T06:18:51.529Z,70.33
2018-09-14T06:21:19.549Z,70.35
2018-09-14T06:23:47.576Z,70.00
2018-09-14T06:26:15.614Z,70.72
2018-09-14T06:28:43.652Z,70.72
2018-09-14T06:31:11.696Z,70.76
2018-09-14T06:33:39.947Z,71.05
2018-09-14T06:36:08.001Z,71.40
2018-09-14T06:38:36.224Z,71.91
2018-09-14T06:41:05.278Z,72.39
2018-09-14T06:43:33.413Z,72.81
2018-09-14T06:46:01.542Z,72.46
2018-09-14T06:48:29.606Z,73.00
2018-09-14T06:50:57.740Z,72.51
2018-09-14T06:53:26.137Z,72.44
2018-09-14T06:55:54.186Z,73.56
2018-09-14T06:58:22.482Z,74.02
2018-09-14T07:00:50.537Z,73.83
2018-09-14T07:03:18.569Z,73.71
2018-09-14T07:05:46.604Z,73.86
2018-09-14T07:08:14.677Z,73.53
2018-09-14T07:10:42.745Z,73.72
2018-09-14T07:13:17.564Z,73.76
2018-09-14T07:15:45.540Z,73.73
2018-09-14T07:18:13.648Z,73.99
2018-09-14T07:20:41.971Z,74.08
2018-09-14T07:23:10.023Z,74.24
2018-09-14T07:25:38.124Z,73.96
2018-09-14T07:28:06.168Z,74.23
2018-09-14T07:30:34.248Z,74.46
2018-09-14T07:33:02.324Z,74.31
2018-09-14T07:35:30.380Z,74.27
2018-09-14T07:37:58.452Z,74.24
2018-09-14T07:40:26.517Z,74.27
2018-09-14T07:42:54.577Z,73.84
2018-09-14T07:45:22.637Z,73.45
2018-09-14T07:47:50.691Z,72.65
2018-09-14T07:50:18.743Z,71.77
2018-09-14T07:52:46.780Z,70.92
2018-09-14T07:55:14.827Z,70.48
2018-09-14T07:57:42.890Z,69.37
2018-09-14T08:00:10.954Z,65.73
2018-09-14T08:02:39.004Z,66.14
2018-09-14T08:05:07.039Z,66.38
2018-09-14T08:07:35.070Z,65.54
2018-09-14T08:10:03.143Z,65.65
2018-09-14T08:12:31.208Z,65.89
2018-09-14T08:14:59.267Z,64.80
2018-09-14T08:17:27.285Z,64.13
2018-09-14T08:19:55.380Z,64.17
2018-09-14T08:22:23.448Z,63.63
2018-09-14T08:24:51.500Z,62.28
2018-09-14T08:27:19.635Z,61.48
2018-09-14T08:29:47.861Z,60.47
2018-09-14T08:32:15.968Z,59.97
2018-09-14T08:34:44.053Z,59.52
2018-09-14T08:37:12.085Z,58.42
2018-09-14T08:39:40.118Z,56.95
2018-09-14T08:42:08.167Z,55.75
2018-09-14T08:44:36.188Z,55.30
2018-09-14T08:47:04.932Z,54.22
2018-09-14T08:49:32.960Z,54.18
2018-09-14T08:52:00.984Z,54.30
2018-09-14T08:57:35.762Z,52.16
2018-09-14T09:00:07.909Z,52.17
2018-09-14T09:02:36.120Z,51.57
2018-09-14T09:05:05.222Z,51.40
2018-09-14T09:07:33.817Z,51.22
2018-09-14T09:10:02.261Z,50.92
2018-09-14T09:12:30.576Z,49.66
2018-09-14T09:14:58.797Z,49.65
2018-09-14T09:17:27.696Z,49.61
2018-09-14T09:19:56.156Z,48.21
2018-09-14T09:22:25.107Z,47.57
2018-09-14T09:24:54.159Z,47.90
2018-09-14T09:27:22.426Z,46.97
2018-09-14T09:29:52.125Z,46.30
2018-09-14T09:32:21.101Z,45.37
2018-09-14T09:34:49.311Z,45.63
2018-09-14T09:37:17.534Z,46.07
2018-09-14T09:39:45.743Z,45.90
2018-09-14T09:42:13.999Z,44.77
2018-09-14T09:44:42.998Z,43.05
2018-09-14T09:47:12.093Z,43.99
2018-09-14T09:49:40.456Z,45.19
2018-09-14T09:52:08.718Z,43.87
2018-09-14T09:54:37.722Z,43.92
2018-09-14T09:57:06.764Z,42.52
2018-09-14T09:59:35.060Z,42.67
2018-09-14T10:02:08.901Z,42.56
2018-09-14T10:04:44.109Z,41.54
2018-09-14T10:07:12.221Z,42.19
2018-09-14T10:09:40.261Z,42.90
2018-09-14T10:12:08.370Z,42.50
2018-09-14T10:14:36.440Z,41.96
2018-09-14T10:17:04.972Z,41.58
2018-09-14T10:19:33.036Z,42.17
2018-09-14T10:22:01.250Z,41.39
2018-09-14T10:24:29.284Z,41.84
2018-09-14T10:26:57.302Z,41.50
2018-09-14T10:29:25.457Z,42.11
2018-09-14T10:31:53.639Z,41.10
2018-09-14T10:34:21.660Z,41.32
2018-09-14T10:36:49.742Z,40.97
2018-09-14T10:39:19.450Z,39.97
2018-09-14T10:41:47.493Z,40.68
2018-09-14T10:44:15.570Z,40.06
2018-09-14T10:46:43.864Z,38.87
2018-09-14T10:49:11.908Z,38.39
2018-09-14T10:51:39.972Z,38.83
2018-09-14T10:54:08.669Z,38.52
2018-09-14T10:56:36.673Z,39.48
2018-09-14T10:59:05.684Z,39.87
2018-09-14T11:03:59.513Z,38.73
2018-09-14T11:06:27.772Z,37.80
2018-09-14T11:08:55.852Z,37.88
2018-09-14T11:11:23.935Z,37.77
2018-09-14T11:13:51.992Z,37.18
2018-09-14T11:16:20.029Z,37.98
2018-09-14T11:18:48.178Z,37.51
2018-09-14T11:21:16.191Z,37.63
2018-09-14T11:23:44.266Z,36.07
2018-09-14T11:26:12.359Z,36.48
2018-09-14T11:28:40.417Z,36.37
2018-09-14T11:31:08.491Z,36.84
2018-09-14T11:33:36.552Z,36.07
2018-09-14T11:36:04.693Z,35.14
2018-09-14T11:38:32.919Z,36.60
2018-09-14T11:41:00.823Z,36.81
2018-09-14T11:43:28.878Z,35.75
2018-09-14T11:45:57.105Z,35.49
2018-09-14T11:48:25.133Z,35.04
2018-09-14T11:50:53.426Z,34.44
2018-09-14T11:53:22.490Z,35.64
2018-09-14T11:55:50.525Z,35.49
2018-09-14T11:58:18.653Z,35.39
2018-09-14T12:00:47.388Z,34.84
2018-09-14T12:03:15.473Z,35.23
2018-09-14T12:05:43.650Z,35.27
2018-09-14T12:08:11.705Z,35.26
2018-09-14T12:10:39.742Z,35.26
2018-09-14T12:13:07.794Z,34.24
2018-09-14T12:15:35.912Z,35.54
2018-09-14T12:18:03.977Z,34.13
2018-09-14T12:20:32.040Z,33.83
2018-09-14T12:25:53.063Z,33.50
2018-09-14T12:28:21.210Z,34.38
2018-09-14T12:30:55.973Z,34.82
2018-09-14T12:33:24.014Z,35.08
2018-09-14T12:35:52.082Z,34.57
2018-09-14T12:38:20.205Z,33.96
2018-09-14T12:40:48.277Z,33.13
2018-09-14T12:43:16.321Z,33.45
2018-09-14T12:45:44.371Z,34.04
2018-09-14T12:48:12.465Z,33.09
2018-09-14T12:50:40.561Z,34.54
2018-09-14T12:53:08.635Z,34.27
2018-09-14T12:55:36.666Z,34.25
2018-09-14T12:58:04.725Z,35.01
2018-09-14T13:00:33.061Z,33.29
2018-09-14T13:03:01.134Z,33.43
2018-09-14T13:05:29.408Z,34.38
2018-09-14T13:07:57.484Z,34.64
2018-09-14T13:10:25.535Z,34.27
2018-09-14T13:12:53.589Z,33.30
2018-09-14T13:15:21.631Z,32.96
2018-09-14T13:17:49.718Z,33.19
2018-09-14T13:20:39.199Z,33.93
2018-09-14T13:23:07.233Z,33.80
2018-09-14T13:25:35.274Z,34.18
2018-09-14T13:28:03.556Z,32.84
2018-09-14T13:30:31.844Z,32.72
2018-09-14T13:32:59.890Z,32.64
2018-09-14T13:35:27.965Z,33.35
2018-09-14T13:37:56.010Z,33.19
2018-09-14T13:40:24.676Z,34.04
2018-09-14T13:42:52.772Z,33.67
2018-09-14T13:45:20.812Z,33.31
2018-09-14T13:47:48.884Z,33.60
2018-09-14T13:50:17.004Z,33.13
2018-09-14T13:52:45.106Z,33.83
2018-09-14T13:55:13.131Z,33.49
2018-09-14T13:57:41.223Z,33.22
2018-09-14T14:00:09.293Z,33.00
2018-09-14T14:02:37.360Z,32.86
2018-09-14T14:05:05.417Z,33.34
2018-09-14T14:07:33.504Z,33.04
2018-09-14T14:10:01.536Z,33.77
2018-09-14T14:12:29.621Z,32.50
2018-09-14T14:14:57.693Z,33.76
2018-09-14T14:17:25.866Z,33.67
2018-09-14T14:19:53.839Z,34.19
2018-09-14T14:22:21.937Z,34.13
2018-09-14T14:24:49.966Z,33.68
2018-09-14T14:27:18.036Z,33.67
2018-09-14T14:29:46.113Z,32.67
2018-09-14T14:32:14.165Z,32.93
2018-09-14T14:34:42.232Z,34.13
2018-09-14T14:37:10.616Z,34.53
2018-09-14T14:39:38.718Z,35.18
2018-09-14T14:42:06.779Z,35.23
2018-09-14T14:44:34.865Z,35.05
2018-09-14T14:47:02.949Z,34.74
2018-09-14T14:49:31.176Z,34.25
2018-09-14T14:51:59.242Z,34.51
2018-09-14T14:54:27.254Z,35.18
2018-09-14T14:56:55.311Z,34.48
2018-09-14T14:59:23.372Z,34.45
2018-09-14T15:01:51.419Z,35.20
2018-09-14T15:04:19.755Z,35.54
2018-09-14T15:06:47.993Z,36.29
2018-09-14T15:09:16.633Z,36.00
2018-09-14T15:11:44.689Z,36.49
2018-09-14T15:14:12.732Z,37.07
2018-09-14T15:16:40.821Z,37.03
2018-09-14T15:19:08.935Z,37.92
2018-09-14T15:21:36.989Z,37.88
2018-09-14T15:24:05.029Z,36.47
2018-09-14T15:26:33.135Z,36.47
2018-09-14T15:29:01.174Z,36.84
2018-09-14T15:31:37.593Z,37.26
2018-09-14T15:34:05.836Z,37.75
2018-09-14T15:36:34.097Z,37.35
2018-09-14T15:39:02.161Z,37.15
2018-09-14T15:41:30.256Z,37.71
2018-09-14T15:43:58.403Z,37.35
2018-09-14T15:46:26.508Z,37.41
2018-09-14T15:48:54.847Z,37.61
2018-09-14T15:51:22.909Z,37.71
2018-09-14T15:53:50.973Z,37.96
2018-09-14T15:56:19.962Z,37.91
2018-09-14T15:58:48.052Z,37.06
2018-09-14T16:01:16.132Z,36.78
2018-09-14T16:03:44.280Z,36.73
2018-09-14T16:06:12.603Z,37.16
2018-09-14T16:08:40.789Z,36.99
2018-09-14T16:11:08.907Z,36.88
2018-09-14T16:13:36.951Z,37.46
2018-09-14T16:16:05.061Z,38.61
2018-09-14T16:18:33.138Z,38.14
2018-09-14T16:21:01.181Z,38.91
2018-09-14T16:23:29.246Z,38.66
2018-09-14T16:25:57.277Z,39.32
2018-09-14T16:28:25.377Z,39.22
2018-09-14T16:30:53.421Z,39.70
2018-09-14T16:33:21.493Z,38.69
2018-09-14T16:35:49.598Z,38.91
2018-09-14T16:38:17.631Z,39.72
2018-09-14T16:40:45.923Z,39.76
2018-09-14T16:43:13.979Z,39.85
2018-09-14T16:45:42.008Z,40.72
2018-09-14T16:48:10.092Z,39.91
2018-09-14T16:50:38.120Z,40.63
2018-09-14T16:53:06.193Z,40.61
2018-09-14T16:55:34.393Z,41.00
2018-09-14T16:58:02.431Z,40.39
2018-09-14T17:00:30.586Z,40.99
2018-09-14T17:02:58.640Z,40.70
2018-09-14T17:05:26.699Z,40.67
2018-09-14T17:07:54.753Z,41.65
2018-09-14T17:10:22.821Z,41.16
2018-09-14T17:12:50.916Z,41.80
2018-09-14T17:15:18.992Z,41.69
2018-09-14T17:17:47.084Z,42.10
2018-09-14T17:20:15.144Z,41.68
2018-09-14T17:22:43.196Z,42.38
2018-09-14T17:25:11.270Z,42.88
2018-09-14T17:27:39.317Z,42.61
2018-09-14T17:30:07.365Z,42.91
2018-09-14T17:32:35.689Z,42.75
2018-09-14T17:35:03.759Z,43.28
2018-09-14T17:37:31.833Z,44.24
2018-09-14T17:39:59.908Z,44.54
2018-09-14T17:42:27.948Z,45.00
2018-09-14T17:44:56.015Z,45.08
2018-09-14T17:47:24.285Z,45.66
2018-09-14T17:49:52.402Z,45.30
2018-09-14T17:52:20.504Z,46.65
2018-09-14T17:54:48.669Z,46.62
2018-09-14T17:57:16.751Z,46.94
2018-09-14T17:59:44.797Z,46.83
2018-09-14T18:02:13.089Z,46.85
2018-09-14T18:04:41.208Z,47.20
2018-09-14T18:07:22.552Z,47.04
2018-09-14T18:09:50.618Z,48.27
2018-09-14T18:12:18.683Z,47.62
2018-09-14T18:14:46.743Z,48.61
2018-09-14T18:17:14.856Z,48.03
2018-09-14T18:19:42.903Z,48.37
2018-09-14T18:22:12.014Z,48.12
2018-09-14T18:24:40.052Z,49.04
2018-09-14T18:27:08.112Z,49.18
2018-09-14T18:29:36.176Z,49.54
2018-09-14T18:32:04.840Z,49.49
2018-09-14T18:34:32.898Z,48.63
2018-09-14T18:37:00.988Z,48.87
2018-09-14T18:39:29.046Z,49.54
2018-09-14T18:41:57.740Z,49.23
2018-09-14T18:44:25.789Z,49.93
2018-09-14T18:46:54.065Z,50.03
2018-09-14T18:49:22.105Z,49.88
2018-09-14T18:51:50.431Z,49.87
2018-09-14T18:54:18.551Z,50.27
2018-09-14T18:56:46.516Z,50.70
2018-09-14T18:59:15.339Z,50.92
2018-09-14T19:01:46.775Z,51.15
2018-09-14T19:04:15.851Z,50.33
2018-09-14T19:06:43.909Z,50.67
2018-09-14T19:09:12.628Z,50.40
2018-09-14T19:11:40.813Z,51.15
2018-09-14T19:14:09.148Z,50.58
2018-09-14T19:16:37.312Z,50.42
2018-09-14T19:19:05.402Z,50.85
2018-09-14T19:21:34.462Z,51.37
2018-09-14T19:24:02.500Z,51.24
2018-09-14T19:26:30.541Z,50.81
2018-09-14T19:28:58.581Z,50.90
2018-09-14T19:31:26.616Z,51.62
2018-09-14T19:33:54.682Z,51.99
2018-09-14T19:36:22.717Z,51.73
2018-09-14T19:38:50.751Z,51.62
2018-09-14T19:41:18.784Z,52.16
2018-09-14T19:43:46.846Z,51.84
2018-09-14T19:46:14.871Z,50.99
2018-09-14T19:48:42.948Z,50.84
2018-09-14T19:51:10.997Z,50.40
2018-09-14T19:53:39.020Z,50.05
2018-09-14T19:56:07.073Z,50.24
2018-09-14T19:58:35.104Z,50.37
2018-09-14T20:01:03.161Z,50.58
2018-09-14T20:03:31.225Z,50.37
2018-09-14T20:05:59.285Z,50.47
2018-09-14T20:08:27.272Z,50.67
2018-09-14T20:10:55.322Z,50.18
2018-09-14T20:13:23.345Z,50.54
2018-09-14T20:15:51.393Z,50.28
2018-09-14T20:18:19.460Z,50.37
2018-09-14T20:20:47.525Z,51.00
2018-09-14T20:23:15.583Z,50.44
2018-09-14T20:25:43.724Z,51.48
2018-09-14T20:28:11.776Z,51.07
2018-09-14T20:30:39.838Z,51.63
2018-09-14T20:33:07.895Z,51.53
2018-09-14T20:35:35.928Z,52.13
2018-09-14T20:38:04.544Z,52.37
2018-09-14T20:40:32.597Z,52.69
2018-09-14T20:43:00.645Z,52.67
2018-09-14T20:45:28.684Z,52.94
2018-09-14T20:47:56.984Z,53.03
2018-09-14T20:50:25.088Z,52.40
2018-09-14T20:52:53.129Z,52.73
2018-09-14T20:55:21.184Z,52.68
2018-09-14T20:57:49.236Z,52.76
2018-09-14T21:00:18.021Z,53.80
2018-09-14T21:02:46.641Z,53.04
2018-09-14T21:05:14.695Z,53.21
2018-09-14T21:07:42.753Z,53.87
2018-09-14T21:10:10.916Z,53.55
2018-09-14T21:12:38.945Z,54.06
2018-09-14T21:15:07.168Z,53.60
2018-09-14T21:17:35.234Z,53.90
2018-09-14T21:20:03.315Z,54.74
2018-09-14T21:22:31.445Z,54.28
2018-09-14T21:24:59.450Z,54.27
2018-09-14T21:27:27.501Z,54.39
2018-09-14T21:29:55.594Z,54.48
2018-09-14T21:32:23.640Z,55.03
2018-09-14T21:34:51.977Z,54.21
2018-09-14T21:37:20.025Z,54.45
2018-09-14T21:39:48.100Z,55.05
2018-09-14T21:42:16.165Z,55.33
2018-09-14T21:44:44.253Z,54.57
2018-09-14T21:47:13.808Z,54.52
2018-09-14T21:49:41.864Z,54.86
2018-09-14T21:52:09.930Z,54.75
2018-09-14T21:54:38.341Z,55.07
2018-09-14T21:57:06.509Z,55.06
2018-09-14T21:59:34.553Z,54.66
2018-09-14T22:02:02.624Z,55.55
2018-09-14T22:04:30.664Z,55.75
2018-09-14T22:06:58.784Z,55.51
2018-09-14T22:09:26.834Z,55.87
2018-09-14T22:11:54.872Z,55.45
2018-09-14T22:14:23.147Z,55.39
2018-09-14T22:16:51.216Z,56.20
2018-09-14T22:19:19.254Z,56.02
2018-09-14T22:21:47.355Z,56.46
2018-09-14T22:24:15.334Z,56.30
2018-09-14T22:26:43.389Z,57.16
2018-09-14T22:29:11.425Z,56.59
2018-09-14T22:31:39.481Z,56.90
2018-09-14T22:34:07.569Z,56.64
2018-09-14T22:36:54.809Z,57.88
2018-09-14T22:39:23.029Z,56.98
2018-09-14T22:41:52.583Z,57.33
2018-09-14T22:44:20.611Z,57.86
2018-09-14T22:46:48.844Z,58.29
2018-09-14T22:49:16.875Z,58.01
2018-09-14T22:51:44.943Z,57.89
2018-09-14T22:54:12.997Z,58.74
2018-09-14T22:56:41.057Z,58.88
2018-09-14T22:59:09.340Z,58.03
2018-09-14T23:01:37.407Z,59.04
2018-09-14T23:04:05.449Z,58.44
2018-09-14T23:06:33.500Z,58.47
2018-09-14T23:09:01.538Z,58.33
2018-09-14T23:11:29.596Z,58.68
2018-09-14T23:13:57.631Z,58.87
2018-09-14T23:16:25.672Z,59.25
2018-09-14T23:18:53.719Z,58.65
2018-09-14T23:21:21.878Z,58.79
2018-09-14T23:23:49.919Z,59.47
2018-09-14T23:26:20.350Z,59.77
2018-09-14T23:28:48.529Z,59.87
2018-09-14T23:31:16.747Z,59.39
2018-09-14T23:33:44.797Z,59.79
2018-09-14T23:36:12.934Z,59.81
2018-09-14T23:38:41.044Z,59.85
2018-09-14T23:41:09.174Z,60.59
2018-09-14T23:43:37.378Z,59.98
2018-09-14T23:46:05.461Z,60.49
2018-09-14T23:48:33.507Z,60.16
2018-09-14T23:51:02.108Z,60.28
2018-09-14T23:53:30.216Z,60.97
2018-09-14T23:55:58.271Z,60.99
2018-09-14T23:58:26.345Z,61.24
